Time;durP1;ratioP1;P1;durP2;ratioP2;P2;SDS_P1;SDS_P2;PMS_P1;PMS_P2;Temp;Humidity;BMP_temperature;BMP_pressure;BME280_temperature;BME280_humidity;BME280_pressure;Samples;Min_cycle;Max_cycle;Signal;HPM_P1;HPM_P2
2022/09/21 00:01:59;;;;;;;4.25;2.28;;;7.90;99.90;;;;;;5067142;28;20503;-69
2022/09/21 00:04:25;;;;;;;5.07;2.22;;;7.90;99.90;;;;;;5069519;28;20040;-69
2022/09/21 00:06:51;;;;;;;6.00;2.30;;;7.90;99.90;;;;;;5068819;28;20046;-70
2022/09/21 00:09:17;;;;;;;4.25;2.42;;;7.90;99.90;;;;;;5068955;28;20029;-68
2022/09/21 00:11:42;;;;;;;3.55;2.30;;;7.80;99.90;;;;;;5072146;28;20483;-69
2022/09/21 00:14:11;;;;;;;5.32;2.38;;;7.80;99.90;;;;;;5069150;28;20072;-70
2022/09/21 00:16:40;;;;;;;3.10;2.40;;;7.80;99.90;;;;;;5065583;28;20481;-69
2022/09/21 00:19:05;;;;;;;3.40;1.90;;;7.80;99.90;;;;;;5097996;28;20048;-70
2022/09/21 00:21:31;;;;;;;4.88;2.35;;;7.80;99.90;;;;;;5068279;28;20040;-68
2022/09/21 00:23:58;;;;;;;3.83;1.70;;;7.70;99.90;;;;;;5052257;28;20058;-68
2022/09/21 00:26:25;;;;;;;3.63;1.80;;;7.70;99.90;;;;;;5071191;28;20039;-70
2022/09/21 00:28:53;;;;;;;2.58;1.80;;;7.60;99.90;;;;;;5066885;28;20072;-68
2022/09/21 00:31:19;;;;;;;4.90;2.38;;;7.60;99.90;;;;;;5066287;28;20047;-70
2022/09/21 00:33:45;;;;;;;2.92;1.80;;;7.50;99.90;;;;;;5050442;28;20052;-68
2022/09/21 00:36:17;;;;;;;3.55;2.25;;;7.50;99.90;;;;;;5066510;28;20039;-69
2022/09/21 00:38:43;;;;;;;2.92;1.77;;;7.60;99.90;;;;;;5066444;28;20105;-69
2022/09/21 00:41:10;;;;;;;3.83;2.13;;;7.60;99.90;;;;;;5068213;28;20162;-69
2022/09/21 00:43:38;;;;;;;3.95;1.80;;;7.60;99.90;;;;;;5068307;28;20045;-69
2022/09/21 00:46:13;;;;;;;4.43;2.08;;;7.60;99.90;;;;;;5065084;28;20124;-69
2022/09/21 00:48:41;;;;;;;2.45;1.98;;;7.60;99.90;;;;;;5067282;28;20047;-69
2022/09/21 00:51:08;;;;;;;1.92;1.73;;;7.50;99.90;;;;;;5067479;28;20127;-70
2022/09/21 00:53:35;;;;;;;2.38;1.80;;;7.50;99.90;;;;;;5054281;28;20683;-69
2022/09/21 00:56:02;;;;;;;2.47;1.60;;;7.50;99.90;;;;;;5067081;28;20032;-70
2022/09/21 00:58:43;;;;;;;3.10;1.90;;;7.50;99.90;;;;;;5072966;28;20036;-69
2022/09/21 01:01:11;;;;;;;2.60;1.92;;;7.40;99.90;;;;;;5055849;28;20048;-69
2022/09/21 01:03:37;;;;;;;2.97;1.83;;;7.40;99.90;;;;;;5072059;28;20115;-69
2022/09/21 01:06:03;;;;;;;4.03;1.70;;;7.40;99.90;;;;;;5072086;28;20106;-69
2022/09/21 01:08:29;;;;;;;3.25;1.50;;;7.30;99.90;;;;;;5072475;28;20605;-68
2022/09/21 01:11:12;;;;;;;2.45;1.70;;;7.30;99.90;;;;;;5072130;28;20072;-69
2022/09/21 01:13:49;;;;;;;;;;;7.30;99.90;;;;;;5072955;28;20040;-67
2022/09/21 01:16:37;;;;;;;2.35;1.63;;;7.30;99.90;;;;;;5056669;28;19931;-70
2022/09/21 01:19:06;;;;;;;1.85;1.73;;;7.20;99.90;;;;;;5073127;28;20573;-69
2022/09/21 01:21:44;;;;;;;4.28;1.70;;;7.20;99.90;;;;;;5072031;28;20037;-69
2022/09/21 01:24:41;;;;;;;2.47;2.00;;;7.20;99.90;;;;;;5070979;28;20041;-69
2022/09/21 01:27:30;;;;;;;3.17;2.08;;;7.20;99.90;;;;;;5071581;28;20052;-69
2022/09/21 01:30:15;;;;;;;2.65;2.10;;;7.10;99.90;;;;;;5071809;28;20497;-68
2022/09/21 01:32:55;;;;;;;3.95;1.90;;;7.20;99.90;;;;;;5070935;28;20426;-68
2022/09/21 01:35:27;;;;;;;3.00;2.38;;;7.10;99.90;;;;;;5103114;28;20112;-69
2022/09/21 01:37:58;;;;;;;2.60;2.08;;;7.10;99.90;;;;;;5071878;28;20076;-70
2022/09/21 01:40:42;;;;;;;2.25;1.80;;;7.10;99.90;;;;;;5071805;28;20119;-69
2022/09/21 01:43:13;;;;;;;8.00;2.00;;;7.10;99.90;;;;;;5071328;28;20122;-70
2022/09/21 01:45:43;;;;;;;3.72;1.80;;;7.00;99.90;;;;;;5070113;28;20487;-69
2022/09/21 01:48:10;;;;;;;3.20;1.92;;;7.00;99.90;;;;;;5071997;28;20032;-69
2022/09/21 01:50:43;;;;;;;1.90;1.70;;;6.90;99.90;;;;;;5071348;28;20033;-69
2022/09/21 01:53:17;;;;;;;3.25;2.08;;;6.90;99.90;;;;;;5071487;28;20501;-68
2022/09/21 01:55:54;;;;;;;2.38;1.70;;;6.90;99.90;;;;;;5067538;28;20784;-69
2022/09/21 01:58:35;;;;;;;4.30;1.77;;;6.90;99.90;;;;;;5071920;28;20040;-69
2022/09/21 02:01:03;;;;;;;2.47;1.80;;;6.90;99.90;;;;;;5056919;28;20044;-69
2022/09/21 02:03:38;;;;;;;2.05;1.65;;;6.90;99.90;;;;;;5073809;28;20040;-69
2022/09/21 02:06:05;;;;;;;2.67;1.90;;;6.90;99.90;;;;;;5073512;28;20045;-69
2022/09/21 02:08:32;;;;;;;2.72;1.80;;;6.90;99.90;;;;;;5067866;28;20040;-69
2022/09/21 02:11:01;;;;;;;2.00;1.80;;;6.80;99.90;;;;;;5071094;28;20041;-68
2022/09/21 02:13:33;;;;;;;2.15;1.63;;;6.80;99.90;;;;;;5068803;28;20535;-69
2022/09/21 02:16:07;;;;;;;3.20;1.90;;;6.80;99.90;;;;;;5067554;28;20044;-70
2022/09/21 02:18:56;;;;;;;3.58;2.17;;;6.80;99.90;;;;;;5070801;28;20048;-69
2022/09/21 02:21:50;;;;;;;3.05;1.80;;;6.70;99.90;;;;;;5071106;28;20527;-69
2022/09/21 02:24:44;;;;;;;3.28;2.03;;;6.70;99.90;;;;;;5066302;28;20510;-68
2022/09/21 02:27:25;;;;;;;2.17;1.70;;;6.60;99.90;;;;;;5098733;28;20032;-69
2022/09/21 02:30:12;;;;;;;3.03;2.00;;;6.60;99.90;;;;;;5067404;28;20680;-70
2022/09/21 02:32:50;;;;;;;5.57;2.00;;;6.60;99.90;;;;;;5102297;28;20045;-68
2022/09/21 02:35:42;;;;;;;3.60;2.25;;;6.60;99.90;;;;;;5051867;28;20037;-70
2022/09/21 02:38:38;;;;;;;5.50;2.00;;;6.60;99.90;;;;;;5069884;28;20049;-69
2022/09/21 02:41:12;;;;;;;2.10;1.83;;;6.50;99.90;;;;;;5098940;28;20044;-69
2022/09/21 02:43:40;;;;;;;2.83;2.10;;;6.50;99.90;;;;;;5053012;28;20080;-69
2022/09/21 02:46:17;;;;;;;3.95;1.90;;;6.50;99.90;;;;;;5070499;28;20050;-69
2022/09/21 02:48:48;;;;;;;4.38;2.00;;;6.50;99.90;;;;;;5070221;28;20552;-69
2022/09/21 02:51:20;;;;;;;2.58;2.00;;;6.60;99.90;;;;;;5070172;28;20025;-69
2022/09/21 02:53:47;;;;;;;2.83;2.00;;;6.60;99.90;;;;;;5069472;28;20058;-68
2022/09/21 02:56:13;;;;;;;2.42;1.98;;;6.60;99.90;;;;;;5068962;28;20119;-69
2022/09/21 02:58:45;;;;;;;2.33;2.10;;;6.50;99.90;;;;;;5069318;28;20082;-69
2022/09/21 03:01:12;;;;;;;3.10;2.03;;;6.50;99.90;;;;;;5069929;28;20094;-69
2022/09/21 03:03:38;;;;;;;3.65;2.40;;;6.50;99.90;;;;;;5069933;28;20032;-69
2022/09/21 03:06:04;;;;;;;2.53;2.33;;;6.40;99.90;;;;;;5068769;28;20041;-67
2022/09/21 03:08:29;;;;;;;3.08;2.30;;;6.40;99.90;;;;;;5068030;28;20519;-69
2022/09/21 03:10:56;;;;;;;4.97;2.30;;;6.40;99.90;;;;;;5054054;28;20513;-70
2022/09/21 03:13:22;;;;;;;3.08;2.30;;;6.40;99.90;;;;;;5071468;28;20068;-69
2022/09/21 03:15:48;;;;;;;2.55;1.85;;;6.40;99.90;;;;;;5069049;28;20443;-69
2022/09/21 03:18:14;;;;;;;2.47;1.98;;;6.40;99.90;;;;;;5067917;28;20045;-70
2022/09/21 03:20:45;;;;;;;2.05;1.60;;;6.30;99.90;;;;;;5069947;28;20479;-69
2022/09/21 03:23:11;;;;;;;3.47;1.77;;;6.40;99.90;;;;;;5069964;28;20109;-69
2022/09/21 03:25:37;;;;;;;2.47;1.90;;;6.30;99.90;;;;;;5068770;28;20119;-68
2022/09/21 03:28:03;;;;;;;2.25;2.00;;;6.30;99.90;;;;;;5052517;28;20475;-68
2022/09/21 03:30:30;;;;;;;2.10;1.80;;;6.30;99.90;;;;;;5070184;28;20223;-69
2022/09/21 03:32:56;;;;;;;3.58;1.85;;;6.30;99.90;;;;;;5069247;28;20040;-69
2022/09/21 03:35:25;;;;;;;2.35;1.83;;;6.30;99.90;;;;;;5069541;28;20546;-69
2022/09/21 03:37:51;;;;;;;3.05;1.60;;;6.20;99.90;;;;;;5052872;28;20072;-69
2022/09/21 03:40:18;;;;;;;2.75;1.60;;;6.20;99.90;;;;;;5051573;28;20123;-69
2022/09/21 03:42:44;;;;;;;2.53;1.80;;;6.20;99.90;;;;;;5069131;28;20088;-69
2022/09/21 03:45:11;;;;;;;3.25;2.30;;;6.20;99.90;;;;;;5069177;28;20056;-69
2022/09/21 03:47:38;;;;;;;3.13;1.80;;;6.10;99.90;;;;;;5067404;28;20028;-69
2022/09/21 03:50:08;;;;;;;2.92;1.88;;;6.10;99.90;;;;;;5069423;28;20032;-69
2022/09/21 03:52:38;;;;;;;2.45;1.80;;;6.00;99.90;;;;;;5068599;28;20522;-68
2022/09/21 03:55:05;;;;;;;4.35;1.92;;;6.00;99.90;;;;;;5066675;28;20088;-69
2022/09/21 03:57:31;;;;;;;2.92;1.73;;;6.00;99.90;;;;;;5069231;28;20135;-69
2022/09/21 03:59:57;;;;;;;2.20;1.70;;;6.00;99.90;;;;;;5067081;28;20036;-69
2022/09/21 04:02:23;;;;;;;2.50;1.98;;;6.00;99.90;;;;;;5068779;28;20040;-69
2022/09/21 04:04:48;;;;;;;2.45;1.70;;;5.90;99.90;;;;;;5067061;28;20406;-70
2022/09/21 04:07:14;;;;;;;3.65;1.77;;;5.90;99.90;;;;;;5052355;28;20384;-69
2022/09/21 04:09:40;;;;;;;2.72;2.15;;;6.00;99.90;;;;;;5067747;28;20111;-69
2022/09/21 04:12:06;;;;;;;2.33;1.50;;;5.90;99.90;;;;;;5067160;28;20504;-68
2022/09/21 04:14:33;;;;;;;3.97;1.55;;;5.90;99.90;;;;;;5069214;28;20044;-68
2022/09/21 04:16:58;;;;;;;2.70;1.60;;;5.90;99.90;;;;;;5051438;28;20052;-68
2022/09/21 04:19:24;;;;;;;1.88;1.65;;;5.90;99.90;;;;;;5067531;28;20048;-68
2022/09/21 04:21:53;;;;;;;2.83;1.85;;;5.90;99.90;;;;;;5067257;28;20115;-69
2022/09/21 04:24:19;;;;;;;2.50;1.60;;;5.80;99.90;;;;;;5050487;28;20159;-68
2022/09/21 04:26:45;;;;;;;2.35;1.83;;;5.80;99.90;;;;;;5095683;28;20128;-69
2022/09/21 04:29:13;;;;;;;3.10;1.80;;;5.80;99.90;;;;;;5066825;28;20032;-70
2022/09/21 04:31:38;;;;;;;1.95;1.65;;;5.80;99.90;;;;;;5068192;28;20074;-69
2022/09/21 04:34:04;;;;;;;4.60;1.85;;;5.70;99.90;;;;;;5067122;28;20075;-69
2022/09/21 04:36:31;;;;;;;1.83;1.63;;;5.70;99.90;;;;;;5068465;28;20036;-68
2022/09/21 04:38:59;;;;;;;1.60;1.50;;;5.60;99.90;;;;;;5068421;28;20111;-68
2022/09/21 04:41:25;;;;;;;2.35;1.63;;;5.60;99.90;;;;;;5069117;28;20062;-68
2022/09/21 04:43:51;;;;;;;3.08;1.75;;;5.60;99.90;;;;;;5068889;28;20647;-70
2022/09/21 04:46:18;;;;;;;5.18;1.52;;;5.60;99.90;;;;;;5070052;28;20043;-68
2022/09/21 04:48:45;;;;;;;1.88;1.50;;;5.60;99.90;;;;;;5070081;28;20036;-68
2022/09/21 04:51:12;;;;;;;3.53;1.52;;;5.60;99.90;;;;;;5068613;28;20037;-69
2022/09/21 04:53:41;;;;;;;3.67;1.67;;;5.60;99.90;;;;;;5068703;28;20041;-69
2022/09/21 04:56:09;;;;;;;2.45;1.30;;;5.60;99.90;;;;;;5051978;28;20044;-68
2022/09/21 04:58:34;;;;;;;2.13;1.30;;;5.50;99.90;;;;;;5068648;28;20486;-68
2022/09/21 05:01:01;;;;;;;2.80;1.58;;;5.50;99.90;;;;;;5067515;28;20032;-69
2022/09/21 05:03:26;;;;;;;3.92;1.40;;;5.50;99.90;;;;;;5068413;28;20542;-69
2022/09/21 05:05:54;;;;;;;2.42;1.70;;;5.50;99.90;;;;;;5066650;28;20135;-69
2022/09/21 05:11:06;;;;;;;1.63;1.30;;;5.50;99.90;;;;;;5066846;28;20046;-69
2022/09/21 05:13:32;;;;;;;2.47;1.73;;;5.50;99.90;;;;;;5068663;28;20464;-69
2022/09/21 05:15:57;;;;;;;2.00;1.55;;;5.40;99.90;;;;;;5069578;28;20123;-69
2022/09/21 05:18:23;;;;;;;4.05;1.67;;;5.40;99.90;;;;;;5065761;28;20411;-69
2022/09/21 05:20:56;;;;;;;2.08;1.60;;;5.40;99.90;;;;;;5068996;28;20076;-69
2022/09/21 05:23:23;;;;;;;1.73;1.63;;;5.30;99.90;;;;;;5050532;28;20402;-68
2022/09/21 05:25:49;;;;;;;2.90;1.60;;;5.30;99.90;;;;;;5066579;28;20170;-68
2022/09/21 05:28:16;;;;;;;3.60;1.60;;;5.30;99.90;;;;;;5051799;28;20063;-69
2022/09/21 05:30:45;;;;;;;2.83;2.20;;;5.30;99.90;;;;;;5067906;28;20044;-69
2022/09/21 05:33:15;;;;;;;3.00;1.90;;;5.30;99.90;;;;;;5065199;28;20497;-70
2022/09/21 05:36:17;;;;;;;3.00;1.65;;;5.30;99.90;;;;;;5049697;28;20052;-70
2022/09/21 05:38:43;;;;;;;2.30;1.80;;;5.30;99.90;;;;;;5012967;28;20045;-70
2022/09/21 05:41:09;;;;;;;2.83;1.80;;;5.30;99.90;;;;;;5016307;28;20037;-69
2022/09/21 05:43:34;;;;;;;2.92;1.70;;;5.30;99.90;;;;;;5012708;28;20044;-70
2022/09/21 05:46:30;;;;;;;3.05;1.80;;;5.30;99.90;;;;;;5013979;28;20191;-69
2022/09/21 05:49:25;;;;;;;3.47;1.95;;;5.40;99.90;;;;;;5012952;28;20072;-69
2022/09/21 05:52:15;;;;;;;4.60;1.70;;;5.40;99.90;;;;;;5019995;28;20049;-69
2022/09/21 05:54:58;;;;;;;4.07;1.60;;;5.50;99.90;;;;;;4996513;28;20534;-71
2022/09/21 05:57:23;;;;;;;;;;;5.60;99.90;;;;;;5012057;28;20171;-72
2022/09/21 05:59:59;;;;;;;3.72;1.88;;;5.60;99.90;;;;;;5013901;28;20318;-71
2022/09/21 06:02:55;;;;;;;3.22;1.90;;;5.70;99.90;;;;;;5013437;28;20050;-72
2022/09/21 06:05:21;;;;;;;1.90;1.70;;;5.70;99.90;;;;;;5010949;28;20034;-71
2022/09/21 06:07:47;;;;;;;2.95;1.60;;;5.80;99.90;;;;;;5012957;28;20049;-70
2022/09/21 06:10:14;;;;;;;3.20;1.63;;;5.80;99.90;;;;;;5011372;28;20417;-68
2022/09/21 06:12:40;;;;;;;3.28;1.90;;;5.80;99.90;;;;;;5012250;28;20053;-70
2022/09/21 06:15:09;;;;;;;2.75;2.10;;;5.80;99.90;;;;;;5056789;28;20377;-71
2022/09/21 06:17:35;;;;;;;2.70;2.40;;;5.90;99.90;;;;;;5070807;28;20040;-70
2022/09/21 06:20:02;;;;;;;3.13;2.65;;;5.90;99.90;;;;;;5070526;28;20086;-70
2022/09/21 06:22:27;;;;;;;2.58;2.28;;;6.00;99.90;;;;;;5069928;28;20036;-71
2022/09/21 06:24:53;;;;;;;4.88;3.00;;;6.10;99.90;;;;;;5053720;28;20086;-71
2022/09/21 06:27:19;;;;;;;3.65;2.90;;;6.20;99.90;;;;;;5069092;28;20028;-70
2022/09/21 06:29:44;;;;;;;4.47;2.78;;;6.20;99.90;;;;;;5054165;28;20068;-70
2022/09/21 06:32:10;;;;;;;3.15;2.85;;;6.30;99.90;;;;;;5070699;28;20059;-71
2022/09/21 06:34:36;;;;;;;3.90;3.00;;;6.40;99.90;;;;;;5054263;28;20147;-70
2022/09/21 06:37:03;;;;;;;4.00;2.92;;;6.50;99.90;;;;;;5071041;28;20124;-69
2022/09/21 06:39:28;;;;;;;6.43;3.70;;;6.60;99.90;;;;;;5070560;28;20036;-69
2022/09/21 06:41:55;;;;;;;5.13;4.07;;;6.70;99.90;;;;;;5070441;28;20043;-71
2022/09/21 06:44:20;;;;;;;6.07;4.57;;;6.90;99.90;;;;;;5070106;28;20082;-70
2022/09/21 06:46:46;;;;;;;6.38;4.45;;;7.00;99.90;;;;;;5070917;28;20521;-69
2022/09/21 06:49:12;;;;;;;6.00;4.65;;;7.20;99.90;;;;;;5070429;28;20040;-70
2022/09/21 06:51:37;;;;;;;7.07;4.25;;;7.30;99.90;;;;;;5070720;28;20055;-71
2022/09/21 06:54:04;;;;;;;7.53;4.40;;;7.50;99.90;;;;;;5069432;28;20115;-71
2022/09/21 06:56:30;;;;;;;6.32;4.30;;;7.70;99.90;;;;;;5069515;28;20037;-70
2022/09/21 06:58:55;;;;;;;8.90;5.68;;;7.80;99.90;;;;;;5070629;28;20067;-71
2022/09/21 07:01:21;;;;;;;7.40;4.80;;;7.90;99.90;;;;;;5070251;28;20170;-70
2022/09/21 07:03:50;;;;;;;7.80;4.30;;;8.00;99.90;;;;;;5070244;28;20052;-70
2022/09/21 07:06:17;;;;;;;6.57;4.30;;;8.10;99.90;;;;;;5070042;28;20032;-68
2022/09/21 07:08:43;;;;;;;8.20;4.65;;;8.30;99.90;;;;;;5069834;28;20032;-70
2022/09/21 07:11:10;;;;;;;4.97;4.20;;;8.50;99.90;;;;;;5069631;28;20490;-70
2022/09/21 07:13:35;;;;;;;7.47;4.22;;;8.70;99.90;;;;;;5069852;28;20040;-70
2022/09/21 07:16:06;;;;;;;6.13;4.00;;;8.90;99.90;;;;;;5069699;28;20044;-70
2022/09/21 07:18:35;;;;;;;6.95;3.63;;;9.10;99.90;;;;;;5053467;28;20048;-71
2022/09/21 07:21:06;;;;;;;7.95;3.38;;;9.20;99.90;;;;;;5103733;28;20040;-70
2022/09/21 07:23:32;;;;;;;5.50;3.33;;;9.40;99.90;;;;;;5069504;28;20036;-68
2022/09/21 07:26:04;;;;;;;4.57;3.10;;;9.60;99.90;;;;;;5069550;28;20049;-68
2022/09/21 07:28:30;;;;;;;6.03;3.40;;;9.80;99.90;;;;;;5069593;28;20044;-69
2022/09/21 07:30:57;;;;;;;3.83;2.78;;;10.00;99.90;;;;;;5069583;28;20040;-70
2022/09/21 07:33:24;;;;;;;5.50;2.70;;;10.20;99.90;;;;;;5069519;28;20479;-70
2022/09/21 07:35:51;;;;;;;5.13;2.75;;;10.40;99.90;;;;;;5069411;28;20041;-70
2022/09/21 07:38:17;;;;;;;5.68;3.13;;;10.50;99.90;;;;;;5069085;28;20051;-71
2022/09/21 07:40:43;;;;;;;4.70;2.83;;;10.70;99.90;;;;;;5051742;28;20123;-71
2022/09/21 07:43:08;;;;;;;6.28;3.00;;;10.90;99.90;;;;;;5063896;28;20048;-69
2022/09/21 07:45:34;;;;;;;7.55;2.97;;;11.10;99.90;;;;;;5068583;28;20053;-69
2022/09/21 07:48:04;;;;;;;7.10;2.78;;;11.30;99.90;;;;;;5068919;28;20394;-70
2022/09/21 07:50:32;;;;;;;4.38;2.72;;;11.50;99.90;;;;;;5068594;28;20394;-70
2022/09/21 07:52:59;;;;;;;3.55;2.50;;;11.60;99.90;;;;;;5051667;28;20145;-69
2022/09/21 07:55:25;;;;;;;12.80;2.97;;;11.80;99.90;;;;;;5052249;28;20206;-69
2022/09/21 08:00:36;;;;;;;4.40;2.45;;;12.10;99.90;;;;;;5068792;28;20131;-70
2022/09/21 08:03:02;;;;;;;5.85;2.53;;;12.20;99.90;;;;;;5068212;28;20414;-70
2022/09/21 08:05:28;;;;;;;7.20;2.60;;;12.40;99.90;;;;;;5066374;28;20045;-69
2022/09/21 08:07:57;;;;;;;5.72;2.75;;;12.70;99.90;;;;;;5068766;28;20036;-71
2022/09/21 08:10:27;;;;;;;7.63;2.88;;;12.80;99.90;;;;;;5069253;28;20036;-68
2022/09/21 08:12:53;;;;;;;6.82;3.00;;;13.00;99.90;;;;;;5068574;28;20075;-70
2022/09/21 08:15:18;;;;;;;5.95;2.40;;;13.10;99.90;;;;;;5068978;28;20040;-70
2022/09/21 08:17:44;;;;;;;6.32;2.35;;;13.30;99.90;;;;;;5068226;28;20450;-70
2022/09/21 08:20:10;;;;;;;9.50;3.20;;;13.40;99.90;;;;;;5067109;28;20055;-70
2022/09/21 08:22:35;;;;;;;9.02;2.22;;;13.60;99.90;;;;;;5068257;28;20115;-71
2022/09/21 08:25:02;;;;;;;6.93;1.90;;;13.80;99.90;;;;;;5066600;28;20037;-71
2022/09/21 08:27:27;;;;;;;4.95;1.80;;;13.90;99.90;;;;;;5066184;28;20048;-69
2022/09/21 08:29:53;;;;;;;4.20;1.70;;;13.90;99.90;;;;;;5067996;28;20055;-74
2022/09/21 08:32:19;;;;;;;9.35;1.80;;;14.10;99.90;;;;;;5068079;28;20093;-69
2022/09/21 08:34:44;;;;;;;5.43;1.67;;;14.20;99.90;;;;;;5050432;28;20083;-74
2022/09/21 08:37:10;;;;;;;7.13;1.92;;;14.50;99.90;;;;;;5068984;28;20081;-72
2022/09/21 08:39:36;;;;;;;9.30;1.98;;;14.60;99.90;;;;;;5068751;28;20491;-70
2022/09/21 08:42:23;;;;;;;6.53;1.70;;;14.70;99.90;;;;;;5068254;28;20040;-74
2022/09/21 08:45:05;;;;;;;6.35;1.77;;;14.90;99.90;;;;;;5068536;28;20127;-72
2022/09/21 08:47:44;;;;;;;4.77;1.53;;;14.90;99.90;;;;;;5068814;28;20075;-70
2022/09/21 08:50:22;;;;;;;6.82;2.03;;;15.00;99.90;;;;;;5051719;28;20083;-70
2022/09/21 08:52:51;;;;;;;6.20;1.60;;;15.20;99.90;;;;;;5068518;28;20481;-74
2022/09/21 08:55:19;;;;;;;3.95;1.30;;;15.40;99.90;;;;;;5068673;28;20490;-70
2022/09/21 08:57:45;;;;;;;7.55;1.80;;;15.50;99.90;;;;;;5068861;28;20040;-71
2022/09/21 09:00:16;;;;;;;7.50;2.03;;;15.70;99.90;;;;;;5068250;28;20047;-72
2022/09/21 09:03:02;;;;;;;4.95;1.67;;;15.80;99.90;;;;;;5068239;28;20036;-74
2022/09/21 09:05:38;;;;;;;5.22;1.60;;;16.00;99.90;;;;;;5068573;28;20043;-72
2022/09/21 09:08:18;;;;;;;6.70;1.73;;;16.10;99.90;;;;;;5068343;28;20070;-73
2022/09/21 09:10:53;;;;;;;5.80;1.88;;;16.20;99.90;;;;;;5068322;28;20036;-73
2022/09/21 09:13:31;;;;;;;5.03;1.90;;;16.30;99.90;;;;;;5068387;28;20403;-71
2022/09/21 09:16:21;;;;;;;9.15;1.60;;;16.40;99.90;;;;;;5051149;28;20536;-74
2022/09/21 09:18:58;;;;;;;7.93;2.25;;;16.50;99.90;;;;;;5072818;28;20044;-71
2022/09/21 09:21:38;;;;;;;5.43;1.50;;;16.60;99.90;;;;;;5072215;28;20036;-74
2022/09/21 09:24:18;;;;;;;7.72;1.52;;;16.60;99.90;;;;;;5055269;28;20056;-74
2022/09/21 09:27:16;;;;;;;6.60;1.40;;;16.80;99.90;;;;;;5072475;28;20090;-71
2022/09/21 09:30:13;;;;;;;5.55;1.25;;;16.90;99.90;;;;;;5052928;28;20051;-71
2022/09/21 09:32:57;;;;;;;5.07;2.10;;;17.10;99.90;;;;;;5069431;28;20048;-73
2022/09/21 09:35:43;;;;;;;10.13;1.58;;;17.30;99.90;;;;;;5098713;28;20044;-70
2022/09/21 09:38:36;;;;;;;5.30;1.20;;;17.30;99.90;;;;;;5071623;28;20051;-69
2022/09/21 09:41:17;;;;;;;;;;;17.30;99.90;;;;;;5072323;28;20042;-74
2022/09/21 09:44:05;;;;;;;6.15;1.50;;;17.50;99.90;;;;;;5071252;28;19977;-72
2022/09/21 09:46:47;;;;;;;4.05;1.23;;;17.60;99.90;;;;;;5071817;28;20059;-73
2022/09/21 09:49:52;;;;;;;6.57;1.33;;;17.80;99.90;;;;;;5071634;28;20491;-73
2022/09/21 09:52:18;;;;;;;6.15;1.17;;;18.00;99.90;;;;;;5071330;28;20551;-73
2022/09/21 09:54:44;;;;;;;6.85;1.05;;;18.20;99.90;;;;;;5070131;28;20127;-70
2022/09/21 09:57:10;;;;;;;5.13;0.98;;;18.40;99.90;;;;;;5053772;28;20040;-71
2022/09/21 09:59:42;;;;;;;5.13;0.95;;;18.60;99.90;;;;;;5071495;28;20040;-74
2022/09/21 10:02:16;;;;;;;5.00;0.90;;;18.40;99.90;;;;;;5071196;28;20131;-70
2022/09/21 10:05:04;;;;;;;4.95;1.05;;;18.60;99.90;;;;;;5071056;28;20098;-70
2022/09/21 10:07:47;;;;;;;5.70;1.10;;;18.90;99.90;;;;;;5070683;28;20036;-72
2022/09/21 10:10:27;;;;;;;5.22;1.02;;;19.10;99.90;;;;;;5070886;28;20036;-70
2022/09/21 10:12:56;;;;;;;5.72;0.98;;;19.50;99.90;;;;;;5054873;28;20517;-75
2022/09/21 10:15:25;;;;;;;6.28;1.17;;;19.60;99.90;;;;;;5070886;28;20432;-73
2022/09/21 10:18:09;;;;;;;3.72;0.90;;;19.50;99.10;;;;;;5070919;28;20048;-73
2022/09/21 10:20:35;;;;;;;6.13;0.80;;;19.40;96.40;;;;;;5071159;28;20087;-73
2022/09/21 10:23:02;;;;;;;4.85;1.15;;;19.50;98.60;;;;;;5071405;28;20079;-72
2022/09/21 10:25:28;;;;;;;6.85;1.10;;;19.70;98.60;;;;;;5070940;28;20531;-72
2022/09/21 10:27:55;;;;;;;4.40;0.95;;;19.90;98.40;;;;;;5054320;28;20068;-75
2022/09/21 10:30:47;;;;;;;3.00;0.70;;;19.90;97.70;;;;;;5053924;28;20040;-73
2022/09/21 10:33:21;;;;;;;4.53;0.93;;;20.00;95.60;;;;;;5052105;28;20105;-71
2022/09/21 10:35:51;;;;;;;7.47;1.00;;;20.10;95.00;;;;;;5071023;28;20044;-71
2022/09/21 10:38:28;;;;;;;2.97;0.75;;;20.30;96.00;;;;;;5070892;28;20037;-72
2022/09/21 10:40:54;;;;;;;6.57;1.05;;;20.50;95.50;;;;;;5070685;28;20041;-72
2022/09/21 10:43:24;;;;;;;3.38;0.80;;;20.80;96.30;;;;;;5070522;28;20037;-71
2022/09/21 10:45:55;;;;;;;4.47;1.00;;;21.00;94.80;;;;;;5070702;28;20044;-74
2022/09/21 10:48:24;;;;;;;8.18;1.02;;;20.90;95.20;;;;;;5070447;28;20028;-72
2022/09/21 10:50:51;;;;;;;5.28;0.80;;;20.90;95.60;;;;;;5070255;28;20055;-72
2022/09/21 10:53:27;;;;;;;4.32;1.08;;;20.60;94.20;;;;;;5070459;28;20071;-72
2022/09/21 10:55:58;;;;;;;3.97;0.93;;;20.90;95.00;;;;;;5053784;28;20040;-72
2022/09/21 10:58:24;;;;;;;4.27;0.70;;;21.00;94.30;;;;;;5070291;28;20058;-72
2022/09/21 11:00:51;;;;;;;4.47;0.90;;;21.40;95.50;;;;;;5053611;28;20344;-73
2022/09/21 11:03:29;;;;;;;4.18;0.90;;;21.40;93.50;;;;;;5070532;28;20044;-73
2022/09/21 11:06:28;;;;;;;4.50;0.50;;;21.10;92.10;;;;;;5070064;28;20815;-74
2022/09/21 11:08:56;;;;;;;3.10;1.00;;;21.20;93.50;;;;;;5049137;28;20072;-70
2022/09/21 11:11:40;;;;;;;3.60;1.13;;;21.20;93.10;;;;;;5032341;28;20052;-72
2022/09/21 11:14:36;;;;;;;4.88;0.80;;;21.30;93.50;;;;;;5032454;28;20048;-73
2022/09/21 11:17:17;;;;;;;3.75;0.85;;;21.70;94.00;;;;;;5032427;28;20037;-74
2022/09/21 11:19:52;;;;;;;3.77;0.87;;;21.80;91.60;;;;;;5032676;28;20053;-74
2022/09/21 11:22:56;;;;;;;3.72;0.90;;;21.70;92.50;;;;;;5032378;28;20041;-74
2022/09/21 11:25:39;;;;;;;2.92;0.60;;;21.40;92.70;;;;;;4971465;28;20050;-74
2022/09/21 11:28:32;;;;;;;6.85;1.55;;;21.30;92.70;;;;;;4973299;28;20034;-73
2022/09/21 11:31:18;;;;;;;3.33;0.82;;;21.10;92.60;;;;;;4973016;28;20433;-74
2022/09/21 11:34:21;;;;;;;4.85;1.00;;;20.60;91.50;;;;;;4972889;28;20437;-74
2022/09/21 11:36:49;;;;;;;4.70;1.10;;;20.50;93.70;;;;;;4972291;28;20145;-76
2022/09/21 11:39:41;;;;;;;2.58;0.73;;;20.90;93.70;;;;;;4972610;28;20046;-70
2022/09/21 11:42:32;;;;;;;3.45;0.80;;;21.10;93.30;;;;;;4972397;28;20045;-73
2022/09/21 11:45:00;;;;;;;2.60;0.70;;;21.20;93.10;;;;;;4999431;28;20056;-75
2022/09/21 11:47:44;;;;;;;5.40;0.90;;;21.10;92.50;;;;;;5009997;28;20150;-74
2022/09/21 11:50:28;;;;;;;3.10;0.80;;;20.90;92.40;;;;;;5008800;28;20519;-72
2022/09/21 11:53:02;;;;;;;2.88;0.60;;;20.70;92.90;;;;;;5011706;28;20037;-71
2022/09/21 11:55:49;;;;;;;4.53;0.95;;;20.70;93.00;;;;;;5021566;28;20446;-72
2022/09/21 11:58:39;;;;;;;4.05;1.02;;;20.70;92.80;;;;;;5069386;28;20487;-73
2022/09/21 12:01:36;;;;;;;6.63;0.80;;;20.70;92.50;;;;;;5069306;28;20052;-73
2022/09/21 12:04:14;;;;;;;5.00;0.90;;;20.50;93.00;;;;;;5069099;28;20052;-73
2022/09/21 12:06:48;;;;;;;4.07;0.90;;;20.30;92.40;;;;;;5052925;28;20048;-74
2022/09/21 12:09:40;;;;;;;2.85;0.90;;;20.10;92.80;;;;;;5069053;28;20490;-72
2022/09/21 12:12:19;;;;;;;3.45;0.80;;;20.10;93.10;;;;;;5069206;28;20439;-73
2022/09/21 12:14:51;;;;;;;5.28;0.90;;;19.90;92.80;;;;;;5069094;28;20037;-69
2022/09/21 12:17:48;;;;;;;6.30;0.85;;;19.90;92.90;;;;;;5069413;28;20412;-74
2022/09/21 12:20:24;;;;;;;4.18;0.70;;;19.70;92.30;;;;;;5011456;28;20152;-72
2022/09/21 12:22:56;;;;;;;7.18;0.88;;;19.50;92.20;;;;;;5011770;28;20077;-73
2022/09/21 12:25:42;;;;;;;;;;;19.30;92.60;;;;;;5012466;28;20565;-74
2022/09/21 12:28:31;;;;;;;3.75;0.90;;;19.20;93.20;;;;;;5010916;28;19928;-73
2022/09/21 12:31:02;;;;;;;7.22;1.20;;;19.10;92.50;;;;;;4994395;28;20045;-75
2022/09/21 12:34:03;;;;;;;4.32;0.80;;;19.10;92.80;;;;;;5011456;28;20040;-74
2022/09/21 12:36:39;;;;;;;5.22;0.80;;;19.00;93.00;;;;;;4938282;29;20044;-71
2022/09/21 12:39:09;;;;;;;2.33;0.60;;;19.00;92.70;;;;;;4951903;28;20042;-75
2022/09/21 12:41:58;;;;;;;3.33;0.80;;;18.90;92.90;;;;;;4953189;28;20109;-72
2022/09/21 12:44:50;;;;;;;4.03;0.77;;;18.80;92.20;;;;;;4923293;29;20133;-73
2022/09/21 12:47:44;;;;;;;5.43;0.70;;;18.70;92.10;;;;;;4967978;28;20074;-73
2022/09/21 12:50:30;;;;;;;3.38;1.02;;;18.50;92.50;;;;;;4952387;28;20089;-71
2022/09/21 12:52:56;;;;;;;2.95;0.60;;;18.50;92.30;;;;;;4954086;28;20525;-72
2022/09/21 12:55:27;;;;;;;6.60;0.98;;;18.40;92.00;;;;;;4949272;28;20054;-72
2022/09/21 12:58:04;;;;;;;4.75;0.95;;;18.40;92.30;;;;;;4998664;28;20053;-72
2022/09/21 13:00:39;;;;;;;5.57;0.60;;;18.30;91.40;;;;;;5013174;28;20056;-70
2022/09/21 13:03:08;;;;;;;6.13;1.00;;;18.20;91.30;;;;;;5014004;28;20182;-71
2022/09/21 13:06:22;;;;;;;4.20;0.90;;;18.10;91.50;;;;;;4998051;28;20076;-71
2022/09/21 13:08:48;;;;;;;5.03;0.88;;;18.10;91.70;;;;;;4995097;28;20053;-73
2022/09/21 13:11:20;;;;;;;3.13;0.70;;;18.10;92.30;;;;;;4994661;28;20501;-71
2022/09/21 13:13:51;;;;;;;3.17;0.70;;;18.00;92.20;;;;;;5021923;28;20592;-71
2022/09/21 13:16:30;;;;;;;4.25;0.60;;;17.90;91.90;;;;;;5032781;28;20356;-69
2022/09/21 13:19:01;;;;;;;6.38;0.80;;;17.80;92.00;;;;;;5034558;28;20063;-74
2022/09/21 13:21:30;;;;;;;4.07;0.82;;;17.80;92.30;;;;;;5047656;28;20099;-72
2022/09/21 13:24:04;;;;;;;5.88;0.80;;;17.90;92.70;;;;;;5046854;28;20057;-70
2022/09/21 13:26:39;;;;;;;5.05;0.70;;;17.90;91.90;;;;;;5033329;28;20110;-72
2022/09/21 13:29:27;;;;;;;2.60;0.68;;;17.90;92.30;;;;;;5030930;28;20076;-71